sensor_id;sensor_type;location;lat;lon;timestamp;P1;durP1;ratioP1;P2;durP2;ratioP2
7761;SDS011;3925;48.636;9.516;2023-03-01T00:01:27;20.08;;;15.57;;
7761;SDS011;3925;48.636;9.516;2023-03-01T00:03:55;19.40;;;13.20;;
7761;SDS011;3925;48.636;9.516;2023-03-01T00:06:23;18.40;;;12.60;;
7761;SDS011;3925;48.636;9.516;2023-03-01T00:08:50;19.33;;;13.83;;
7761;SDS011;3925;48.636;9.516;2023-03-01T00:11:18;17.50;;;13.43;;
7761;SDS011;3925;48.636;9.516;2023-03-01T00:13:48;20.10;;;15.20;;
7761;SDS011;3925;48.636;9.516;2023-03-01T00:16:18;18.00;;;13.23;;
7761;SDS011;3925;48.636;9.516;2023-03-01T00:18:46;14.47;;;12.20;;
7761;SDS011;3925;48.636;9.516;2023-03-01T00:21:13;20.63;;;14.27;;
7761;SDS011;3925;48.636;9.516;2023-03-01T00:23:40;19.23;;;13.57;;
7761;SDS011;3925;48.636;9.516;2023-03-01T00:26:07;17.83;;;13.73;;
7761;SDS011;3925;48.636;9.516;2023-03-01T00:28:36;18.13;;;13.47;;
7761;SDS011;3925;48.636;9.516;2023-03-01T00:31:08;17.87;;;13.73;;
7761;SDS011;3925;48.636;9.516;2023-03-01T00:33:36;18.23;;;13.03;;
7761;SDS011;3925;48.636;9.516;2023-03-01T00:36:03;15.47;;;12.93;;
7761;SDS011;3925;48.636;9.516;2023-03-01T00:38:33;19.50;;;15.70;;
7761;SDS011;3925;48.636;9.516;2023-03-01T00:41:04;17.97;;;13.33;;
7761;SDS011;3925;48.636;9.516;2023-03-01T00:43:34;17.20;;;13.45;;
7761;SDS011;3925;48.636;9.516;2023-03-01T00:46:02;15.23;;;13.63;;
7761;SDS011;3925;48.636;9.516;2023-03-01T00:48:31;19.97;;;14.30;;
7761;SDS011;3925;48.636;9.516;2023-03-01T00:51:03;15.87;;;13.37;;
7761;SDS011;3925;48.636;9.516;2023-03-01T00:53:31;21.83;;;14.37;;
7761;SDS011;3925;48.636;9.516;2023-03-01T00:55:58;18.40;;;12.60;;
7761;SDS011;3925;48.636;9.516;2023-03-01T00:58:25;17.88;;;13.18;;
7761;SDS011;3925;48.636;9.516;2023-03-01T01:00:52;23.03;;;14.80;;
7761;SDS011;3925;48.636;9.516;2023-03-01T01:03:21;16.70;;;12.83;;
7761;SDS011;3925;48.636;9.516;2023-03-01T01:05:49;16.50;;;12.97;;
7761;SDS011;3925;48.636;9.516;2023-03-01T01:08:17;16.07;;;12.50;;
7761;SDS011;3925;48.636;9.516;2023-03-01T01:10:44;17.87;;;13.00;;
7761;SDS011;3925;48.636;9.516;2023-03-01T01:13:11;16.30;;;11.90;;
7761;SDS011;3925;48.636;9.516;2023-03-01T01:15:39;17.80;;;13.97;;
7761;SDS011;3925;48.636;9.516;2023-03-01T01:18:06;15.70;;;14.10;;
7761;SDS011;3925;48.636;9.516;2023-03-01T01:20:36;18.07;;;14.13;;
7761;SDS011;3925;48.636;9.516;2023-03-01T01:23:04;18.63;;;13.87;;
7761;SDS011;3925;48.636;9.516;2023-03-01T01:25:33;20.50;;;14.63;;
7761;SDS011;3925;48.636;9.516;2023-03-01T01:28:01;18.63;;;13.77;;
7761;SDS011;3925;48.636;9.516;2023-03-01T01:30:28;15.40;;;12.70;;
7761;SDS011;3925;48.636;9.516;2023-03-01T01:32:55;19.77;;;14.47;;
7761;SDS011;3925;48.636;9.516;2023-03-01T01:35:22;17.20;;;12.63;;
7761;SDS011;3925;48.636;9.516;2023-03-01T01:37:50;17.93;;;13.03;;
7761;SDS011;3925;48.636;9.516;2023-03-01T01:40:17;20.63;;;14.53;;
7761;SDS011;3925;48.636;9.516;2023-03-01T01:42:44;17.77;;;13.02;;
7761;SDS011;3925;48.636;9.516;2023-03-01T01:45:25;15.33;;;13.00;;
7761;SDS011;3925;48.636;9.516;2023-03-01T01:47:57;16.37;;;12.80;;
7761;SDS011;3925;48.636;9.516;2023-03-01T01:50:28;18.23;;;13.40;;
7761;SDS011;3925;48.636;9.516;2023-03-01T01:53:04;18.20;;;13.30;;
7761;SDS011;3925;48.636;9.516;2023-03-01T01:55:38;17.77;;;13.03;;
7761;SDS011;3925;48.636;9.516;2023-03-01T01:58:09;17.97;;;14.37;;
7761;SDS011;3925;48.636;9.516;2023-03-01T02:00:39;18.87;;;14.10;;
7761;SDS011;3925;48.636;9.516;2023-03-01T02:03:08;15.50;;;11.70;;
7761;SDS011;3925;48.636;9.516;2023-03-01T02:05:37;17.67;;;13.60;;
7761;SDS011;3925;48.636;9.516;2023-03-01T02:08:11;18.37;;;13.50;;
7761;SDS011;3925;48.636;9.516;2023-03-01T02:10:40;16.30;;;12.47;;
7761;SDS011;3925;48.636;9.516;2023-03-01T02:13:08;17.67;;;12.17;;
7761;SDS011;3925;48.636;9.516;2023-03-01T02:15:36;19.37;;;12.50;;
7761;SDS011;3925;48.636;9.516;2023-03-01T02:18:04;19.80;;;13.03;;
7761;SDS011;3925;48.636;9.516;2023-03-01T02:20:33;14.97;;;13.10;;
7761;SDS011;3925;48.636;9.516;2023-03-01T02:23:03;16.70;;;13.07;;
7761;SDS011;3925;48.636;9.516;2023-03-01T02:25:34;17.33;;;13.30;;
7761;SDS011;3925;48.636;9.516;2023-03-01T02:28:08;13.93;;;12.00;;
7761;SDS011;3925;48.636;9.516;2023-03-01T02:30:44;14.07;;;12.63;;
7761;SDS011;3925;48.636;9.516;2023-03-01T02:33:27;16.67;;;13.77;;
7761;SDS011;3925;48.636;9.516;2023-03-01T02:35:57;15.40;;;13.60;;
7761;SDS011;3925;48.636;9.516;2023-03-01T02:38:25;16.60;;;12.37;;
7761;SDS011;3925;48.636;9.516;2023-03-01T02:40:53;16.07;;;12.73;;
7761;SDS011;3925;48.636;9.516;2023-03-01T02:43:25;18.30;;;14.07;;
7761;SDS011;3925;48.636;9.516;2023-03-01T02:45:57;15.13;;;12.20;;
7761;SDS011;3925;48.636;9.516;2023-03-01T02:48:37;14.00;;;11.03;;
7761;SDS011;3925;48.636;9.516;2023-03-01T02:51:11;15.50;;;11.53;;
7761;SDS011;3925;48.636;9.516;2023-03-01T02:54:05;20.80;;;13.37;;
7761;SDS011;3925;48.636;9.516;2023-03-01T02:56:36;14.63;;;12.43;;
7761;SDS011;3925;48.636;9.516;2023-03-01T02:59:05;15.07;;;13.03;;
7761;SDS011;3925;48.636;9.516;2023-03-01T03:01:32;15.60;;;13.27;;
7761;SDS011;3925;48.636;9.516;2023-03-01T03:04:03;16.63;;;13.20;;
7761;SDS011;3925;48.636;9.516;2023-03-01T03:06:31;18.73;;;13.33;;
7761;SDS011;3925;48.636;9.516;2023-03-01T03:08:58;17.00;;;12.70;;
7761;SDS011;3925;48.636;9.516;2023-03-01T03:11:25;17.50;;;14.57;;
7761;SDS011;3925;48.636;9.516;2023-03-01T03:13:52;19.00;;;13.53;;
7761;SDS011;3925;48.636;9.516;2023-03-01T03:16:21;17.47;;;13.53;;
7761;SDS011;3925;48.636;9.516;2023-03-01T03:18:48;16.40;;;13.57;;
7761;SDS011;3925;48.636;9.516;2023-03-01T03:21:15;17.60;;;13.53;;
7761;SDS011;3925;48.636;9.516;2023-03-01T03:23:42;15.40;;;12.60;;
7761;SDS011;3925;48.636;9.516;2023-03-01T03:26:09;20.80;;;13.80;;
7761;SDS011;3925;48.636;9.516;2023-03-01T03:28:38;15.80;;;13.70;;
7761;SDS011;3925;48.636;9.516;2023-03-01T03:31:05;16.77;;;13.00;;
7761;SDS011;3925;48.636;9.516;2023-03-01T03:33:33;17.53;;;13.77;;
7761;SDS011;3925;48.636;9.516;2023-03-01T03:36:00;18.40;;;13.63;;
7761;SDS011;3925;48.636;9.516;2023-03-01T03:38:27;18.20;;;13.20;;
7761;SDS011;3925;48.636;9.516;2023-03-01T03:40:59;18.50;;;13.83;;
7761;SDS011;3925;48.636;9.516;2023-03-01T03:43:27;21.10;;;13.20;;
7761;SDS011;3925;48.636;9.516;2023-03-01T03:45:54;17.20;;;14.40;;
7761;SDS011;3925;48.636;9.516;2023-03-01T03:48:22;21.30;;;14.73;;
7761;SDS011;3925;48.636;9.516;2023-03-01T03:50:51;17.87;;;13.40;;
7761;SDS011;3925;48.636;9.516;2023-03-01T03:53:20;21.33;;;14.37;;
7761;SDS011;3925;48.636;9.516;2023-03-01T03:55:48;17.93;;;14.60;;
7761;SDS011;3925;48.636;9.516;2023-03-01T03:58:16;16.77;;;12.93;;
7761;SDS011;3925;48.636;9.516;2023-03-01T04:00:45;21.40;;;15.40;;
7761;SDS011;3925;48.636;9.516;2023-03-01T04:03:14;17.90;;;12.30;;
7761;SDS011;3925;48.636;9.516;2023-03-01T04:05:41;17.00;;;12.90;;
7761;SDS011;3925;48.636;9.516;2023-03-01T04:08:10;16.47;;;13.50;;
7761;SDS011;3925;48.636;9.516;2023-03-01T04:10:38;17.63;;;14.60;;
7761;SDS011;3925;48.636;9.516;2023-03-01T04:13:06;19.10;;;13.80;;
7761;SDS011;3925;48.636;9.516;2023-03-01T04:15:36;16.47;;;12.40;;
7761;SDS011;3925;48.636;9.516;2023-03-01T04:18:04;18.30;;;13.77;;
7761;SDS011;3925;48.636;9.516;2023-03-01T04:20:31;15.60;;;13.13;;
7761;SDS011;3925;48.636;9.516;2023-03-01T04:23:01;17.70;;;13.70;;
7761;SDS011;3925;48.636;9.516;2023-03-01T04:25:38;15.90;;;13.20;;
7761;SDS011;3925;48.636;9.516;2023-03-01T04:28:06;18.23;;;13.77;;
7761;SDS011;3925;48.636;9.516;2023-03-01T04:30:33;16.80;;;14.23;;
7761;SDS011;3925;48.636;9.516;2023-03-01T04:33:02;18.37;;;12.83;;
7761;SDS011;3925;48.636;9.516;2023-03-01T04:35:30;17.67;;;13.83;;
7761;SDS011;3925;48.636;9.516;2023-03-01T04:37:57;19.20;;;14.63;;
7761;SDS011;3925;48.636;9.516;2023-03-01T04:40:24;18.70;;;14.40;;
7761;SDS011;3925;48.636;9.516;2023-03-01T04:42:52;17.90;;;14.57;;
7761;SDS011;3925;48.636;9.516;2023-03-01T04:45:19;16.53;;;12.70;;
7761;SDS011;3925;48.636;9.516;2023-03-01T04:47:46;18.53;;;13.10;;
7761;SDS011;3925;48.636;9.516;2023-03-01T04:50:15;19.20;;;14.77;;
7761;SDS011;3925;48.636;9.516;2023-03-01T04:52:45;17.60;;;13.30;;
7761;SDS011;3925;48.636;9.516;2023-03-01T04:55:13;19.10;;;14.00;;
7761;SDS011;3925;48.636;9.516;2023-03-01T04:57:40;18.50;;;13.47;;
7761;SDS011;3925;48.636;9.516;2023-03-01T05:00:10;18.33;;;14.50;;
7761;SDS011;3925;48.636;9.516;2023-03-01T05:02:46;20.37;;;14.53;;
7761;SDS011;3925;48.636;9.516;2023-03-01T05:05:18;22.53;;;15.23;;
7761;SDS011;3925;48.636;9.516;2023-03-01T05:07:50;22.00;;;15.50;;
7761;SDS011;3925;48.636;9.516;2023-03-01T05:10:18;17.67;;;13.90;;
7761;SDS011;3925;48.636;9.516;2023-03-01T05:12:46;18.53;;;13.23;;
7761;SDS011;3925;48.636;9.516;2023-03-01T05:15:14;16.90;;;13.90;;
7761;SDS011;3925;48.636;9.516;2023-03-01T05:17:41;20.33;;;15.13;;
7761;SDS011;3925;48.636;9.516;2023-03-01T05:20:08;21.07;;;15.87;;
7761;SDS011;3925;48.636;9.516;2023-03-01T05:22:36;20.30;;;16.03;;
7761;SDS011;3925;48.636;9.516;2023-03-01T05:25:05;19.63;;;14.80;;
7761;SDS011;3925;48.636;9.516;2023-03-01T05:27:33;20.43;;;16.10;;
7761;SDS011;3925;48.636;9.516;2023-03-01T05:30:00;17.77;;;15.87;;
7761;SDS011;3925;48.636;9.516;2023-03-01T05:32:39;17.90;;;14.13;;
7761;SDS011;3925;48.636;9.516;2023-03-01T05:35:09;18.53;;;14.33;;
7761;SDS011;3925;48.636;9.516;2023-03-01T05:37:38;16.70;;;14.03;;
7761;SDS011;3925;48.636;9.516;2023-03-01T05:40:06;21.00;;;16.43;;
7761;SDS011;3925;48.636;9.516;2023-03-01T05:42:40;20.30;;;15.40;;
7761;SDS011;3925;48.636;9.516;2023-03-01T05:45:08;21.17;;;16.30;;
7761;SDS011;3925;48.636;9.516;2023-03-01T05:47:37;20.73;;;14.17;;
7761;SDS011;3925;48.636;9.516;2023-03-01T05:50:09;23.63;;;16.33;;
7761;SDS011;3925;48.636;9.516;2023-03-01T05:52:37;20.60;;;16.00;;
7761;SDS011;3925;48.636;9.516;2023-03-01T05:55:04;23.90;;;15.20;;
7761;SDS011;3925;48.636;9.516;2023-03-01T05:57:31;20.53;;;15.30;;
7761;SDS011;3925;48.636;9.516;2023-03-01T05:59:58;21.23;;;16.70;;
7761;SDS011;3925;48.636;9.516;2023-03-01T06:02:25;19.33;;;15.73;;
7761;SDS011;3925;48.636;9.516;2023-03-01T06:04:53;19.93;;;16.40;;
7761;SDS011;3925;48.636;9.516;2023-03-01T06:07:20;26.37;;;15.53;;
7761;SDS011;3925;48.636;9.516;2023-03-01T06:09:47;20.40;;;16.03;;
7761;SDS011;3925;48.636;9.516;2023-03-01T06:12:14;23.00;;;16.03;;
7761;SDS011;3925;48.636;9.516;2023-03-01T06:14:41;22.60;;;15.40;;
7761;SDS011;3925;48.636;9.516;2023-03-01T06:17:08;21.50;;;15.70;;
7761;SDS011;3925;48.636;9.516;2023-03-01T06:19:35;24.07;;;16.77;;
7761;SDS011;3925;48.636;9.516;2023-03-01T06:22:03;18.63;;;15.37;;
7761;SDS011;3925;48.636;9.516;2023-03-01T06:24:30;22.57;;;16.10;;
7761;SDS011;3925;48.636;9.516;2023-03-01T06:26:57;26.10;;;17.10;;
7761;SDS011;3925;48.636;9.516;2023-03-01T06:29:23;22.10;;;15.70;;
7761;SDS011;3925;48.636;9.516;2023-03-01T06:31:50;18.27;;;15.20;;
7761;SDS011;3925;48.636;9.516;2023-03-01T06:34:17;25.57;;;15.60;;
7761;SDS011;3925;48.636;9.516;2023-03-01T06:36:44;20.63;;;15.97;;
7761;SDS011;3925;48.636;9.516;2023-03-01T06:39:13;21.80;;;16.03;;
7761;SDS011;3925;48.636;9.516;2023-03-01T06:41:44;24.07;;;17.03;;
7761;SDS011;3925;48.636;9.516;2023-03-01T06:44:11;17.73;;;14.57;;
7761;SDS011;3925;48.636;9.516;2023-03-01T06:46:38;19.17;;;16.00;;
7761;SDS011;3925;48.636;9.516;2023-03-01T06:49:05;23.67;;;17.13;;
7761;SDS011;3925;48.636;9.516;2023-03-01T06:51:34;23.30;;;16.57;;
7761;SDS011;3925;48.636;9.516;2023-03-01T06:54:02;22.17;;;15.93;;
7761;SDS011;3925;48.636;9.516;2023-03-01T06:56:30;21.23;;;15.90;;
7761;SDS011;3925;48.636;9.516;2023-03-01T06:58:58;22.23;;;16.50;;
7761;SDS011;3925;48.636;9.516;2023-03-01T07:01:24;22.30;;;17.17;;
7761;SDS011;3925;48.636;9.516;2023-03-01T07:03:51;19.53;;;16.10;;
7761;SDS011;3925;48.636;9.516;2023-03-01T07:06:18;24.40;;;17.93;;
7761;SDS011;3925;48.636;9.516;2023-03-01T07:08:45;22.57;;;15.73;;
7761;SDS011;3925;48.636;9.516;2023-03-01T07:11:12;21.70;;;15.87;;
7761;SDS011;3925;48.636;9.516;2023-03-01T07:13:41;20.77;;;16.77;;
7761;SDS011;3925;48.636;9.516;2023-03-01T07:16:07;21.03;;;14.60;;
7761;SDS011;3925;48.636;9.516;2023-03-01T07:18:35;23.90;;;16.40;;
7761;SDS011;3925;48.636;9.516;2023-03-01T07:21:05;22.53;;;17.00;;
7761;SDS011;3925;48.636;9.516;2023-03-01T07:23:32;22.23;;;17.07;;
7761;SDS011;3925;48.636;9.516;2023-03-01T07:25:59;19.57;;;15.57;;
7761;SDS011;3925;48.636;9.516;2023-03-01T07:28:26;19.10;;;16.07;;
7761;SDS011;3925;48.636;9.516;2023-03-01T07:30:58;21.13;;;16.17;;
7761;SDS011;3925;48.636;9.516;2023-03-01T07:33:27;23.30;;;16.97;;
7761;SDS011;3925;48.636;9.516;2023-03-01T07:35:57;20.07;;;17.13;;
7761;SDS011;3925;48.636;9.516;2023-03-01T07:38:25;22.70;;;15.50;;
7761;SDS011;3925;48.636;9.516;2023-03-01T07:40:53;20.83;;;15.60;;
7761;SDS011;3925;48.636;9.516;2023-03-01T07:43:20;20.40;;;14.47;;
7761;SDS011;3925;48.636;9.516;2023-03-01T07:45:47;19.70;;;15.20;;
7761;SDS011;3925;48.636;9.516;2023-03-01T07:48:15;19.10;;;15.37;;
7761;SDS011;3925;48.636;9.516;2023-03-01T07:50:42;17.17;;;14.80;;
7761;SDS011;3925;48.636;9.516;2023-03-01T07:53:09;17.77;;;15.77;;
7761;SDS011;3925;48.636;9.516;2023-03-01T07:55:36;18.03;;;16.10;;
7761;SDS011;3925;48.636;9.516;2023-03-01T07:58:03;19.37;;;15.07;;
7761;SDS011;3925;48.636;9.516;2023-03-01T08:00:30;18.73;;;16.20;;
7761;SDS011;3925;48.636;9.516;2023-03-01T08:02:58;17.97;;;15.87;;
7761;SDS011;3925;48.636;9.516;2023-03-01T08:05:27;18.00;;;15.67;;
7761;SDS011;3925;48.636;9.516;2023-03-01T08:07:54;18.17;;;16.30;;
7761;SDS011;3925;48.636;9.516;2023-03-01T08:10:21;16.13;;;14.40;;
7761;SDS011;3925;48.636;9.516;2023-03-01T08:12:48;17.30;;;15.53;;
7761;SDS011;3925;48.636;9.516;2023-03-01T08:15:17;17.03;;;15.20;;
7761;SDS011;3925;48.636;9.516;2023-03-01T08:17:44;15.70;;;14.30;;
7761;SDS011;3925;48.636;9.516;2023-03-01T08:20:11;18.23;;;15.40;;
7761;SDS011;3925;48.636;9.516;2023-03-01T08:22:40;18.07;;;16.20;;
7761;SDS011;3925;48.636;9.516;2023-03-01T08:25:07;19.87;;;16.77;;
7761;SDS011;3925;48.636;9.516;2023-03-01T08:27:34;17.50;;;15.80;;
7761;SDS011;3925;48.636;9.516;2023-03-01T08:30:01;19.03;;;15.43;;
7761;SDS011;3925;48.636;9.516;2023-03-01T08:32:28;16.50;;;15.00;;
7761;SDS011;3925;48.636;9.516;2023-03-01T08:34:55;19.17;;;16.07;;
7761;SDS011;3925;48.636;9.516;2023-03-01T08:37:22;17.40;;;14.77;;
7761;SDS011;3925;48.636;9.516;2023-03-01T08:39:51;17.70;;;15.10;;
7761;SDS011;3925;48.636;9.516;2023-03-01T08:42:17;16.70;;;15.00;;
7761;SDS011;3925;48.636;9.516;2023-03-01T08:44:44;16.30;;;14.60;;
7761;SDS011;3925;48.636;9.516;2023-03-01T08:47:11;18.27;;;16.47;;
7761;SDS011;3925;48.636;9.516;2023-03-01T08:49:38;17.10;;;15.47;;
7761;SDS011;3925;48.636;9.516;2023-03-01T08:52:05;17.53;;;15.67;;
7761;SDS011;3925;48.636;9.516;2023-03-01T08:54:32;17.47;;;15.67;;
7761;SDS011;3925;48.636;9.516;2023-03-01T08:57:02;17.80;;;15.40;;
7761;SDS011;3925;48.636;9.516;2023-03-01T08:59:29;17.30;;;15.43;;
7761;SDS011;3925;48.636;9.516;2023-03-01T09:02:00;18.70;;;14.67;;
7761;SDS011;3925;48.636;9.516;2023-03-01T09:04:27;18.60;;;16.37;;
7761;SDS011;3925;48.636;9.516;2023-03-01T09:06:54;17.13;;;14.97;;
7761;SDS011;3925;48.636;9.516;2023-03-01T09:09:21;15.63;;;14.00;;
7761;SDS011;3925;48.636;9.516;2023-03-01T09:11:48;16.50;;;14.90;;
7761;SDS011;3925;48.636;9.516;2023-03-01T09:14:17;17.00;;;15.20;;
7761;SDS011;3925;48.636;9.516;2023-03-01T09:16:44;16.10;;;14.57;;
7761;SDS011;3925;48.636;9.516;2023-03-01T09:19:12;16.57;;;14.87;;
7761;SDS011;3925;48.636;9.516;2023-03-01T09:21:39;17.77;;;16.07;;
7761;SDS011;3925;48.636;9.516;2023-03-01T09:24:06;17.27;;;15.53;;
7761;SDS011;3925;48.636;9.516;2023-03-01T09:26:37;16.20;;;14.60;;
7761;SDS011;3925;48.636;9.516;2023-03-01T09:29:04;16.50;;;14.90;;
7761;SDS011;3925;48.636;9.516;2023-03-01T09:31:32;15.60;;;14.10;;
7761;SDS011;3925;48.636;9.516;2023-03-01T09:33:59;17.63;;;15.83;;
7761;SDS011;3925;48.636;9.516;2023-03-01T09:36:26;16.17;;;14.50;;
7761;SDS011;3925;48.636;9.516;2023-03-01T09:38:53;17.30;;;15.60;;
7761;SDS011;3925;48.636;9.516;2023-03-01T09:41:26;17.23;;;15.73;;
7761;SDS011;3925;48.636;9.516;2023-03-01T09:44:24;16.60;;;14.93;;
7761;SDS011;3925;48.636;9.516;2023-03-01T09:46:58;16.20;;;14.70;;
7761;SDS011;3925;48.636;9.516;2023-03-01T09:49:26;16.20;;;14.60;;
7761;SDS011;3925;48.636;9.516;2023-03-01T09:51:57;17.57;;;15.87;;
7761;SDS011;3925;48.636;9.516;2023-03-01T09:54:27;15.73;;;14.23;;
7761;SDS011;3925;48.636;9.516;2023-03-01T09:56:57;16.43;;;14.73;;
7761;SDS011;3925;48.636;9.516;2023-03-01T09:59:33;16.37;;;14.80;;
7761;SDS011;3925;48.636;9.516;2023-03-01T10:02:16;15.00;;;13.60;;
7761;SDS011;3925;48.636;9.516;2023-03-01T10:04:50;15.87;;;14.37;;
7761;SDS011;3925;48.636;9.516;2023-03-01T10:07:26;16.60;;;15.00;;
7761;SDS011;3925;48.636;9.516;2023-03-01T10:09:58;16.03;;;14.57;;
7761;SDS011;3925;48.636;9.516;2023-03-01T10:12:31;17.03;;;15.33;;
7761;SDS011;3925;48.636;9.516;2023-03-01T10:15:02;17.17;;;15.47;;
7761;SDS011;3925;48.636;9.516;2023-03-01T10:17:37;16.50;;;14.90;;
7761;SDS011;3925;48.636;9.516;2023-03-01T10:20:17;15.53;;;14.03;;
7761;SDS011;3925;48.636;9.516;2023-03-01T10:22:46;16.10;;;14.20;;
7761;SDS011;3925;48.636;9.516;2023-03-01T10:25:20;18.60;;;16.80;;
7761;SDS011;3925;48.636;9.516;2023-03-01T10:28:00;15.23;;;13.83;;
7761;SDS011;3925;48.636;9.516;2023-03-01T10:30:32;17.27;;;15.70;;
7761;SDS011;3925;48.636;9.516;2023-03-01T10:33:05;15.40;;;14.00;;
7761;SDS011;3925;48.636;9.516;2023-03-01T10:35:41;16.63;;;14.97;;
7761;SDS011;3925;48.636;9.516;2023-03-01T10:38:09;16.23;;;14.70;;
7761;SDS011;3925;48.636;9.516;2023-03-01T10:40:49;16.73;;;14.97;;
7761;SDS011;3925;48.636;9.516;2023-03-01T10:43:18;15.97;;;14.37;;
7761;SDS011;3925;48.636;9.516;2023-03-01T10:45:46;16.07;;;14.50;;
7761;SDS011;3925;48.636;9.516;2023-03-01T10:48:15;16.73;;;15.00;;
7761;SDS011;3925;48.636;9.516;2023-03-01T10:50:43;17.87;;;16.27;;
7761;SDS011;3925;48.636;9.516;2023-03-01T10:53:19;16.20;;;14.60;;
7761;SDS011;3925;48.636;9.516;2023-03-01T10:55:56;15.70;;;14.20;;
7761;SDS011;3925;48.636;9.516;2023-03-01T10:58:25;17.00;;;15.40;;
7761;SDS011;3925;48.636;9.516;2023-03-01T11:00:54;16.57;;;14.97;;
7761;SDS011;3925;48.636;9.516;2023-03-01T11:03:24;16.13;;;14.50;;
7761;SDS011;3925;48.636;9.516;2023-03-01T11:05:57;16.73;;;15.20;;
7761;SDS011;3925;48.636;9.516;2023-03-01T11:08:29;16.00;;;14.50;;
7761;SDS011;3925;48.636;9.516;2023-03-01T11:11:18;17.80;;;16.03;;
7761;SDS011;3925;48.636;9.516;2023-03-01T11:13:57;16.20;;;14.70;;
7761;SDS011;3925;48.636;9.516;2023-03-01T11:16:29;16.50;;;14.80;;
7761;SDS011;3925;48.636;9.516;2023-03-01T11:19:04;16.83;;;15.23;;
7761;SDS011;3925;48.636;9.516;2023-03-01T11:21:41;16.00;;;14.50;;
7761;SDS011;3925;48.636;9.516;2023-03-01T11:24:14;16.07;;;14.47;;
7761;SDS011;3925;48.636;9.516;2023-03-01T11:26:44;17.23;;;15.00;;
7761;SDS011;3925;48.636;9.516;2023-03-01T11:29:17;16.37;;;14.87;;
7761;SDS011;3925;48.636;9.516;2023-03-01T11:32:02;16.30;;;14.60;;
7761;SDS011;3925;48.636;9.516;2023-03-01T11:34:39;17.13;;;15.43;;
7761;SDS011;3925;48.636;9.516;2023-03-01T11:37:16;16.23;;;14.70;;
7761;SDS011;3925;48.636;9.516;2023-03-01T11:39:54;14.70;;;13.33;;
7761;SDS011;3925;48.636;9.516;2023-03-01T11:42:28;14.97;;;13.57;;
7761;SDS011;3925;48.636;9.516;2023-03-01T11:45:02;15.97;;;14.30;;
7761;SDS011;3925;48.636;9.516;2023-03-01T11:47:39;17.57;;;14.80;;
7761;SDS011;3925;48.636;9.516;2023-03-01T11:50:23;16.17;;;14.57;;
7761;SDS011;3925;48.636;9.516;2023-03-01T11:52:59;15.67;;;14.27;;
7761;SDS011;3925;48.636;9.516;2023-03-01T11:55:46;16.17;;;14.67;;
7761;SDS011;3925;48.636;9.516;2023-03-01T11:58:39;14.60;;;13.20;;
7761;SDS011;3925;48.636;9.516;2023-03-01T12:01:32;16.67;;;15.07;;
7761;SDS011;3925;48.636;9.516;2023-03-01T12:04:30;16.47;;;14.03;;
7761;SDS011;3925;48.636;9.516;2023-03-01T12:07:22;16.70;;;15.10;;
7761;SDS011;3925;48.636;9.516;2023-03-01T12:10:06;17.10;;;15.30;;
7761;SDS011;3925;48.636;9.516;2023-03-01T12:12:52;16.70;;;15.00;;
7761;SDS011;3925;48.636;9.516;2023-03-01T12:18:42;16.77;;;15.10;;
7761;SDS011;3925;48.636;9.516;2023-03-01T12:21:30;15.33;;;13.73;;
7761;SDS011;3925;48.636;9.516;2023-03-01T12:24:10;14.27;;;12.77;;
7761;SDS011;3925;48.636;9.516;2023-03-01T12:26:48;15.77;;;13.37;;
7761;SDS011;3925;48.636;9.516;2023-03-01T12:29:24;13.40;;;12.10;;
7761;SDS011;3925;48.636;9.516;2023-03-01T12:37:54;15.90;;;14.30;;
7761;SDS011;3925;48.636;9.516;2023-03-01T12:40:36;19.13;;;14.27;;
7761;SDS011;3925;48.636;9.516;2023-03-01T12:43:21;14.13;;;12.63;;
7761;SDS011;3925;48.636;9.516;2023-03-01T12:45:58;17.23;;;13.27;;
7761;SDS011;3925;48.636;9.516;2023-03-01T12:48:39;14.90;;;13.10;;
7761;SDS011;3925;48.636;9.516;2023-03-01T12:51:13;15.70;;;14.00;;
7761;SDS011;3925;48.636;9.516;2023-03-01T12:53:43;17.27;;;15.03;;
7761;SDS011;3925;48.636;9.516;2023-03-01T12:56:15;17.00;;;15.20;;
7761;SDS011;3925;48.636;9.516;2023-03-01T12:58:46;19.60;;;15.10;;
7761;SDS011;3925;48.636;9.516;2023-03-01T13:01:28;18.70;;;14.37;;
7761;SDS011;3925;48.636;9.516;2023-03-01T13:04:06;17.17;;;14.30;;
7761;SDS011;3925;48.636;9.516;2023-03-01T13:06:55;17.37;;;14.70;;
7761;SDS011;3925;48.636;9.516;2023-03-01T13:09:33;15.80;;;13.80;;
7761;SDS011;3925;48.636;9.516;2023-03-01T13:15:16;14.90;;;12.10;;
7761;SDS011;3925;48.636;9.516;2023-03-01T13:17:52;15.93;;;13.93;;
7761;SDS011;3925;48.636;9.516;2023-03-01T13:20:21;17.80;;;14.07;;
7761;SDS011;3925;48.636;9.516;2023-03-01T13:22:59;17.70;;;13.87;;
7761;SDS011;3925;48.636;9.516;2023-03-01T13:25:29;16.00;;;12.77;;
7761;SDS011;3925;48.636;9.516;2023-03-01T13:30:57;14.27;;;11.57;;
7761;SDS011;3925;48.636;9.516;2023-03-01T13:33:39;16.83;;;14.93;;
7761;SDS011;3925;48.636;9.516;2023-03-01T13:36:08;17.03;;;12.83;;
7761;SDS011;3925;48.636;9.516;2023-03-01T13:38:47;14.67;;;12.50;;
7761;SDS011;3925;48.636;9.516;2023-03-01T13:44:17;20.47;;;12.83;;
7761;SDS011;3925;48.636;9.516;2023-03-01T13:46:53;14.67;;;13.20;;
7761;SDS011;3925;48.636;9.516;2023-03-01T13:49:23;15.10;;;12.70;;
7761;SDS011;3925;48.636;9.516;2023-03-01T13:51:53;16.43;;;14.67;;
7761;SDS011;3925;48.636;9.516;2023-03-01T13:54:24;15.23;;;13.07;;
7761;SDS011;3925;48.636;9.516;2023-03-01T13:56:54;17.13;;;14.47;;
7761;SDS011;3925;48.636;9.516;2023-03-01T13:59:22;15.10;;;13.20;;
7761;SDS011;3925;48.636;9.516;2023-03-01T14:01:53;18.80;;;14.03;;
7761;SDS011;3925;48.636;9.516;2023-03-01T14:04:22;18.90;;;14.50;;
7761;SDS011;3925;48.636;9.516;2023-03-01T14:06:50;14.43;;;12.93;;
7761;SDS011;3925;48.636;9.516;2023-03-01T14:09:18;15.33;;;13.60;;
7761;SDS011;3925;48.636;9.516;2023-03-01T14:12:01;16.93;;;13.40;;
7761;SDS011;3925;48.636;9.516;2023-03-01T14:14:51;16.07;;;14.10;;
7761;SDS011;3925;48.636;9.516;2023-03-01T14:20:18;17.60;;;15.03;;
7761;SDS011;3925;48.636;9.516;2023-03-01T14:22:47;17.73;;;14.33;;
7761;SDS011;3925;48.636;9.516;2023-03-01T14:25:23;17.30;;;14.83;;
7761;SDS011;3925;48.636;9.516;2023-03-01T14:27:54;21.43;;;14.13;;
7761;SDS011;3925;48.636;9.516;2023-03-01T14:30:27;16.77;;;12.90;;
7761;SDS011;3925;48.636;9.516;2023-03-01T14:33:01;20.50;;;15.00;;
7761;SDS011;3925;48.636;9.516;2023-03-01T14:35:29;20.07;;;15.90;;
7761;SDS011;3925;48.636;9.516;2023-03-01T14:37:58;22.23;;;15.13;;
7761;SDS011;3925;48.636;9.516;2023-03-01T14:40:27;16.20;;;14.47;;
7761;SDS011;3925;48.636;9.516;2023-03-01T14:42:56;17.53;;;14.63;;
7761;SDS011;3925;48.636;9.516;2023-03-01T14:45:26;19.90;;;14.67;;
7761;SDS011;3925;48.636;9.516;2023-03-01T14:47:55;17.80;;;15.37;;
7761;SDS011;3925;48.636;9.516;2023-03-01T14:50:27;21.23;;;13.57;;
7761;SDS011;3925;48.636;9.516;2023-03-01T14:52:58;16.23;;;14.63;;
7761;SDS011;3925;48.636;9.516;2023-03-01T14:55:27;17.73;;;14.33;;
7761;SDS011;3925;48.636;9.516;2023-03-01T14:57:57;15.93;;;14.17;;
7761;SDS011;3925;48.636;9.516;2023-03-01T15:00:26;18.27;;;15.10;;
7761;SDS011;3925;48.636;9.516;2023-03-01T15:02:55;16.70;;;14.70;;
7761;SDS011;3925;48.636;9.516;2023-03-01T15:05:28;17.20;;;13.80;;
7761;SDS011;3925;48.636;9.516;2023-03-01T15:07:57;16.63;;;14.07;;
7761;SDS011;3925;48.636;9.516;2023-03-01T15:10:27;16.77;;;14.20;;
7761;SDS011;3925;48.636;9.516;2023-03-01T15:12:56;17.43;;;14.13;;
7761;SDS011;3925;48.636;9.516;2023-03-01T15:15:38;19.43;;;13.50;;
7761;SDS011;3925;48.636;9.516;2023-03-01T15:18:14;17.00;;;13.30;;
7761;SDS011;3925;48.636;9.516;2023-03-01T15:20:45;19.03;;;12.80;;
7761;SDS011;3925;48.636;9.516;2023-03-01T15:23:17;14.83;;;12.67;;
7761;SDS011;3925;48.636;9.516;2023-03-01T15:25:49;16.80;;;14.00;;
7761;SDS011;3925;48.636;9.516;2023-03-01T15:28:21;16.40;;;13.83;;
7761;SDS011;3925;48.636;9.516;2023-03-01T15:30:52;15.00;;;12.97;;